Upper Long Lake, Indiana
Current Conditions -  °F | °C
As of 9:35 PM on Sunday 25 Jan 2015 (Local Time) from KGWB Reporting Station
Light Snow Light Snow  
Wind Chill:   Ceiling: 5000
Heat Index: 21°   Visibility: 10mi
Dew Point: 18°   Wind: 13mph
Humidity: 86%   Direction: 50°NE
Pressure: 29.92"   Gusts: NA
Location:  41.3469°N, 85.4059°W
Report Text: KGWB 260235Z AUTO 05011KT 10SM -SN SCT045 OVC050 M06/M08 A2992 RMK AO2
Loading
Personal Weather Stations






























Interactive Weather Map New forecast layout! Learn more

10-Day Weather Forecast

Advertisements
Track Severe Weather on mobile